createdAt,value
2018-12-18T00:00:01.974Z,35.4
2018-12-18T00:05:01.109Z,35.1
2018-12-18T00:10:01.204Z,35.7
2018-12-18T00:15:01.078Z,35.4
2018-12-18T00:20:01.013Z,33.7
2018-12-18T00:25:01.023Z,32.2
2018-12-18T00:30:00.981Z,30.9
2018-12-18T00:35:01.101Z,29.8
2018-12-18T00:40:00.953Z,28.8
2018-12-18T00:45:01.093Z,29.5
2018-12-18T00:50:00.961Z,30.9
2018-12-18T00:55:01.264Z,31.0
2018-12-18T01:00:00.978Z,31.4
2018-12-18T01:05:01.123Z,32.2
2018-12-18T01:10:00.998Z,31.6
2018-12-18T01:15:01.093Z,30.9
2018-12-18T01:20:00.993Z,31.2
2018-12-18T01:25:01.057Z,30.5
2018-12-18T01:30:00.971Z,31.0
2018-12-18T01:35:01.041Z,30.8
2018-12-18T01:40:00.982Z,30.8
2018-12-18T01:45:01.106Z,31.5
2018-12-18T01:50:01.794Z,32.2
2018-12-18T01:55:01.076Z,31.3
2018-12-18T02:00:00.986Z,31.6
2018-12-18T02:05:01.044Z,32.4
2018-12-18T02:10:00.980Z,31.5
2018-12-18T02:15:01.115Z,30.6
2018-12-18T02:20:00.984Z,30.9
2018-12-18T02:25:01.047Z,30.4
2018-12-18T02:30:00.976Z,29.4
2018-12-18T02:35:01.048Z,28.5
2018-12-18T02:40:00.988Z,29.0
2018-12-18T02:45:01.143Z,28.5
2018-12-18T02:50:00.991Z,29.0
2018-12-18T02:55:01.189Z,28.7
2018-12-18T03:00:01.006Z,28.6
2018-12-18T03:05:01.065Z,28.1
2018-12-18T03:10:01.024Z,27.6
2018-12-18T03:15:01.067Z,27.2
2018-12-18T03:20:00.995Z,28.2
2018-12-18T03:25:01.128Z,28.4
2018-12-18T03:30:01.001Z,29.0
2018-12-18T03:35:01.067Z,30.4
2018-12-18T03:40:01.003Z,30.0
2018-12-18T03:45:01.134Z,29.4
2018-12-18T03:50:01.007Z,31.1
2018-12-18T03:55:01.129Z,31.6
2018-12-18T04:00:01.022Z,31.5
2018-12-18T04:05:01.075Z,31.5
2018-12-18T04:10:01.009Z,32.2
2018-12-18T04:15:01.144Z,31.6
2018-12-18T04:20:01.080Z,32.4
2018-12-18T04:25:01.013Z,33.6
2018-12-18T04:35:01.441Z,35.0
2018-12-18T04:40:01.019Z,35.5
2018-12-18T04:45:01.021Z,34.6
2018-12-18T04:50:01.032Z,33.9
2018-12-18T04:55:01.157Z,34.6
2018-12-18T05:00:01.029Z,34.8
2018-12-18T05:05:01.094Z,34.1
2018-12-18T05:10:01.028Z,33.5
2018-12-18T05:15:01.096Z,32.6
2018-12-18T05:20:01.033Z,32.2
2018-12-18T05:25:01.125Z,31.8
2018-12-18T05:30:02.341Z,31.8
2018-12-18T05:35:01.110Z,32.0
2018-12-18T05:40:01.037Z,33.3
2018-12-18T05:45:01.097Z,33.6
2018-12-18T05:50:01.039Z,34.0
2018-12-18T05:55:01.181Z,36.5
2018-12-18T06:00:01.036Z,36.9
2018-12-18T06:05:03.639Z,37.4
2018-12-18T06:10:01.039Z,38.8
2018-12-18T06:15:01.046Z,39.6
2018-12-18T06:20:01.045Z,38.3
2018-12-18T06:30:01.083Z,36.2
2018-12-18T06:35:01.179Z,35.2
2018-12-18T06:40:01.047Z,34.4
2018-12-18T06:45:01.039Z,34.4
2018-12-18T06:50:01.075Z,34.9
2018-12-18T06:55:01.213Z,36.0
2018-12-18T07:00:01.087Z,35.0
2018-12-18T07:05:01.070Z,35.4
2018-12-18T07:10:01.047Z,33.9
2018-12-18T07:15:01.055Z,34.7
2018-12-18T07:20:01.053Z,36.2
2018-12-18T07:25:01.203Z,37.3
2018-12-18T07:30:02.459Z,35.7
2018-12-18T07:35:01.124Z,35.6
2018-12-18T07:40:01.050Z,34.6
2018-12-18T07:45:01.061Z,32.4
2018-12-18T07:50:01.058Z,31.8
2018-12-18T07:55:01.195Z,31.6
2018-12-18T08:00:01.079Z,30.3
2018-12-18T08:05:01.079Z,29.7
2018-12-18T08:10:01.074Z,27.6
2018-12-18T08:15:01.078Z,25.4
2018-12-18T08:20:01.072Z,24.5
2018-12-18T08:25:01.140Z,23.7
2018-12-18T08:30:01.080Z,22.0
2018-12-18T08:35:01.079Z,21.0
2018-12-18T08:40:01.076Z,19.8
2018-12-18T08:45:01.082Z,19.5
2018-12-18T08:50:01.080Z,19.0
2018-12-18T08:55:01.086Z,18.9
2018-12-18T09:00:01.084Z,20.1
2018-12-18T09:05:06.225Z,20.3
2018-12-18T09:10:01.084Z,19.0
2018-12-18T09:15:01.152Z,20.4
2018-12-18T09:20:01.181Z,20.6
2018-12-18T09:25:01.148Z,18.0
2018-12-18T09:30:01.122Z,18.5
2018-12-18T09:35:01.133Z,18.7
2018-12-18T09:40:01.130Z,17.4
2018-12-18T09:45:06.230Z,17.7
2018-12-18T09:50:01.129Z,19.6
2018-12-18T09:55:01.157Z,19.7
2018-12-18T10:00:01.138Z,20.8
2018-12-18T10:05:01.126Z,22.7
2018-12-18T10:10:01.588Z,22.0
2018-12-18T10:15:01.165Z,22.0
2018-12-18T10:20:01.128Z,22.6
2018-12-18T10:25:01.160Z,22.2
2018-12-18T10:30:01.133Z,21.4
2018-12-18T10:35:01.229Z,22.2
2018-12-18T10:40:01.130Z,23.1
2018-12-18T10:45:01.236Z,22.9
2018-12-18T10:50:01.104Z,24.2
2018-12-18T10:55:01.140Z,25.3
2018-12-18T11:00:01.130Z,27.1
2018-12-18T11:05:01.141Z,27.4
2018-12-18T11:10:01.128Z,27.0
2018-12-18T11:15:01.194Z,26.4
2018-12-18T11:25:01.137Z,26.0
2018-12-18T11:30:01.153Z,25.2
2018-12-18T11:35:01.272Z,25.0
2018-12-18T11:40:06.134Z,24.3
2018-12-18T11:45:01.213Z,23.6
2018-12-18T11:50:01.144Z,21.6
2018-12-18T11:55:01.155Z,20.6
2018-12-18T12:00:01.145Z,21.2
2018-12-18T12:05:01.270Z,21.0
2018-12-18T12:10:01.125Z,20.4
2018-12-18T12:15:01.263Z,21.3
2018-12-18T12:20:01.132Z,22.4
2018-12-18T12:25:01.198Z,21.9
2018-12-18T12:30:01.138Z,22.7
2018-12-18T12:35:01.202Z,25.1
2018-12-18T12:40:01.130Z,24.5
2018-12-18T12:45:01.269Z,25.1
2018-12-18T12:50:01.133Z,25.6
2018-12-18T12:55:01.138Z,25.6
2018-12-18T13:00:01.134Z,25.2
2018-12-18T13:05:01.199Z,26.5
2018-12-18T13:10:01.131Z,26.9
2018-12-18T13:15:01.271Z,26.8
2018-12-18T13:20:01.133Z,26.2
2018-12-18T13:25:01.267Z,24.2
2018-12-18T13:30:01.137Z,23.1
2018-12-18T13:35:01.210Z,22.2
2018-12-18T13:40:01.144Z,22.0
2018-12-18T13:45:01.301Z,21.5
2018-12-18T13:50:01.176Z,23.2
2018-12-18T13:55:01.243Z,22.8
2018-12-18T14:00:01.186Z,23.2
2018-12-18T14:05:01.182Z,23.5
2018-12-18T14:10:01.148Z,24.9
2018-12-18T14:15:01.218Z,23.3
2018-12-18T14:20:01.163Z,24.9
2018-12-18T14:25:01.158Z,24.8
2018-12-18T14:30:01.151Z,24.8
2018-12-18T14:35:01.223Z,24.4
2018-12-18T14:40:01.159Z,24.5
2018-12-18T14:45:01.174Z,22.1
2018-12-18T14:50:01.156Z,21.2
2018-12-18T14:55:01.286Z,21.3
2018-12-18T15:00:01.161Z,20.5
2018-12-18T15:05:01.358Z,20.0
2018-12-18T15:10:01.169Z,21.4
2018-12-18T15:15:01.291Z,22.5
2018-12-18T15:20:01.168Z,22.8
2018-12-18T15:25:01.211Z,23.8
2018-12-18T15:30:01.162Z,26.4
2018-12-18T15:35:01.231Z,27.2
2018-12-18T15:40:01.180Z,28.8
2018-12-18T15:45:01.240Z,29.8
2018-12-18T15:50:01.168Z,30.6
2018-12-18T15:55:01.304Z,30.2
2018-12-18T16:00:01.178Z,31.2
2018-12-18T16:05:01.327Z,31.8
2018-12-18T16:15:01.234Z,34.0
2018-12-18T16:20:01.206Z,35.9
2018-12-18T16:25:01.342Z,37.4
2018-12-18T16:30:01.216Z,37.4
2018-12-18T16:35:01.278Z,38.0
2018-12-18T16:40:01.275Z,40.1
2018-12-18T16:45:01.279Z,40.3
2018-12-18T16:50:01.218Z,40.5
2018-12-18T16:55:01.404Z,42.1
2018-12-18T17:00:01.220Z,42.4
2018-12-18T17:05:02.329Z,42.2
2018-12-18T17:10:01.253Z,41.4
2018-12-18T17:15:01.392Z,41.8
2018-12-18T17:20:01.190Z,41.0
2018-12-18T17:25:01.311Z,41.0
2018-12-18T17:30:01.400Z,41.7
2018-12-18T17:35:02.196Z,42.3
2018-12-18T17:40:01.199Z,42.2
2018-12-18T17:45:01.321Z,42.4
2018-12-18T17:50:01.198Z,42.0
2018-12-18T17:55:01.345Z,40.9
2018-12-18T18:00:01.235Z,40.3
2018-12-18T18:05:06.271Z,39.8
2018-12-18T18:10:01.191Z,39.1
2018-12-18T18:15:01.380Z,38.2
2018-12-18T18:20:01.197Z,38.4
2018-12-18T18:25:01.327Z,37.7
2018-12-18T18:30:01.229Z,37.8
2018-12-18T18:35:01.601Z,36.9
2018-12-18T18:40:01.212Z,36.5
2018-12-18T18:45:01.308Z,35.1
2018-12-18T18:50:01.234Z,36.4
2018-12-18T18:55:01.301Z,35.1
2018-12-18T19:00:01.209Z,35.0
2018-12-18T19:05:01.280Z,34.8
2018-12-18T19:15:01.303Z,32.1
2018-12-18T19:20:01.206Z,31.8
2018-12-18T19:25:01.282Z,31.7
2018-12-18T19:30:01.216Z,29.9
2018-12-18T19:35:01.297Z,29.2
2018-12-18T19:40:01.221Z,28.8
2018-12-18T19:45:01.217Z,27.4
2018-12-18T19:50:01.221Z,26.5
2018-12-18T20:00:01.225Z,25.4
2018-12-18T20:05:01.343Z,24.8
2018-12-18T20:10:01.232Z,26.0
2018-12-18T20:15:01.226Z,24.9
2018-12-18T20:25:01.231Z,24.7
2018-12-18T20:30:01.232Z,24.1
2018-12-18T20:35:01.399Z,22.4
2018-12-18T20:40:01.229Z,22.1
2018-12-18T20:45:01.363Z,21.6
2018-12-18T20:50:01.226Z,20.3
2018-12-18T20:55:01.262Z,20.5
2018-12-18T21:00:06.256Z,20.4
2018-12-18T21:05:01.268Z,20.8
2018-12-18T21:10:01.240Z,20.8
2018-12-18T21:15:01.450Z,21.8
2018-12-18T21:20:01.238Z,21.7
2018-12-18T21:25:01.238Z,20.8
2018-12-18T21:30:01.236Z,21.0
2018-12-18T21:35:01.303Z,21.5
2018-12-18T21:40:01.270Z,21.9
2018-12-18T21:45:01.242Z,22.1
2018-12-18T21:50:01.306Z,23.0
2018-12-18T21:55:01.373Z,22.5
2018-12-18T22:00:01.241Z,22.3
2018-12-18T22:05:01.313Z,22.4
2018-12-18T22:10:01.247Z,22.8
2018-12-18T22:15:06.331Z,23.0
2018-12-18T22:20:02.272Z,23.5
2018-12-18T22:25:06.386Z,24.1
2018-12-18T22:30:01.247Z,25.0
2018-12-18T22:35:06.342Z,24.3
2018-12-18T22:40:06.435Z,25.6
2018-12-18T22:45:11.331Z,26.2
2018-12-18T22:55:01.351Z,26.3
2018-12-18T23:00:01.304Z,27.0
2018-12-18T23:05:01.381Z,26.5
2018-12-18T23:10:01.239Z,27.2
2018-12-18T23:15:01.308Z,28.2
2018-12-18T23:20:01.245Z,28.4
2018-12-18T23:25:01.307Z,27.6
2018-12-18T23:30:01.246Z,27.2
2018-12-18T23:40:02.045Z,26.1
2018-12-18T23:45:01.317Z,26.4
2018-12-18T23:50:01.248Z,27.5
2018-12-18T23:55:01.315Z,27.5
